Newberry, MI

12:47 PM EDT on June 29, 2017 (GMT -0400)
Luce County

Weather History for KERY - December, 2011

Change the Weather History Date:

Friday, December 2, 2011

  Actual Average Record
Temperature  
Mean Temperature 26 °F -  
Max Temperature 33 °F 31 °F 60 °F (1982)
Min Temperature 21 °F 17 °F -10 °F (1976)
Degree Days  
Heating Degree Days 38    
Moisture  
Dew Point 18 °F    
Average Humidity 71    
Maximum Humidity 86    
Minimum Humidity 59    
Precipitation  
Precipitation 0.00 in - - ()
Sea Level Pressure  
Sea Level Pressure 30.32 in    
Wind  
Wind Speed 7 mph (SW)    
Max Wind Speed 14 mph    
Max Gust Speed 22 mph    
Visibility 10 miles    
Events      
Averages and records for this station are not official NWS values.
T = Trace of Precipitation, MM = Missing Value Source: NWS Daily Summary

Daily Weather History Graph

Daily Weather History Graph

Search for Another Location

Airport or City:

Trip Planner

Search our weather history database for the weather conditions in past years. The results will help you decide how hot, cold, wet, or windy it might be!

Date:

Astronomy

Dec. 02, 2011 Rise Set
Actual Time 8:05 AM EST 4:56 PM EST
Civil Twilight 7:31 AM EST 5:31 PM EST
Nautical Twilight 6:53 AM EST 6:08 PM EST
Astronomical Twilight 6:17 AM EST 6:44 PM EST
Moon 12:56 PM EST (12/2) 12:11 AM EST (12/2)
Length of Visible Light 9h 59m
Length of Day
8h 51m
First Quarter, 53% of the Moon is Illuminated
Dec 2
First Quarter
Dec 10
Full
Dec 17
Last Quarter
Dec 24
New
Jan 1
First Quarter

Hourly Weather History & Observations

Time (EST) Temp. Windchill Dew Point Humidity Pressure Visibility Wind Dir Wind Speed Gust Speed Precip Events Conditions
12:14 AM 26.6 °F 19.1 °F 17.6 °F 69% 30.28 in 10.0 mi WNW 6.9 mph - N/A   Overcast
12:35 AM 24.8 °F 15.3 °F 17.6 °F 74% 30.28 in 10.0 mi West 9.2 mph - N/A   Overcast
12:54 AM 24.8 °F 16.1 °F 17.6 °F 74% 30.27 in 10.0 mi West 8.1 mph - N/A   Overcast
1:15 AM 24.8 °F 15.3 °F 17.6 °F 74% 30.27 in 10.0 mi West 9.2 mph - N/A   Overcast
1:54 AM 24.8 °F 17.9 °F 17.6 °F 74% 30.27 in 10.0 mi West 5.8 mph - N/A   Overcast
2:14 AM 24.8 °F 16.9 °F 17.6 °F 74% 30.28 in 10.0 mi West 6.9 mph - N/A   Overcast
2:34 AM 24.8 °F 16.1 °F 17.6 °F 74% 30.28 in 10.0 mi West 8.1 mph - N/A   Overcast
2:55 AM 24.8 °F 17.9 °F 17.6 °F 74% 30.29 in 10.0 mi West 5.8 mph - N/A   Overcast
3:14 AM 24.8 °F 19.1 °F 17.6 °F 74% 30.29 in 10.0 mi WNW 4.6 mph - N/A   Overcast
3:34 AM 24.8 °F 19.1 °F 17.6 °F 74% 30.28 in 10.0 mi West 4.6 mph - N/A   Overcast
3:55 AM 24.8 °F 17.9 °F 17.6 °F 74% 30.28 in 10.0 mi West 5.8 mph - N/A   Overcast
4:14 AM 24.8 °F 17.9 °F 17.6 °F 74% 30.29 in 10.0 mi West 5.8 mph - N/A   Overcast
4:35 AM 24.8 °F 17.9 °F 17.6 °F 74% 30.29 in 10.0 mi West 5.8 mph - N/A   Overcast
4:54 AM 24.8 °F 16.1 °F 17.6 °F 74% 30.30 in 10.0 mi WNW 8.1 mph - N/A   Overcast
5:14 AM 24.8 °F 20.5 °F 15.8 °F 69% 30.30 in 10.0 mi WNW 3.5 mph - N/A   Overcast
5:35 AM 24.8 °F 20.5 °F 15.8 °F 69% 30.30 in 10.0 mi WNW 3.5 mph - N/A   Overcast
6:14 AM 24.8 °F 19.1 °F 15.8 °F 69% 30.31 in 10.0 mi WNW 4.6 mph - N/A   Overcast
6:35 AM 24.8 °F 19.1 °F 15.8 °F 69% 30.31 in 10.0 mi West 4.6 mph - N/A   Overcast
6:54 AM 24.8 °F 16.1 °F 15.8 °F 69% 30.32 in 10.0 mi West 8.1 mph - N/A   Overcast
7:14 AM 24.8 °F - 14.0 °F 64% 30.32 in 10.0 mi Calm Calm - N/A   Overcast
7:35 AM 24.8 °F - 15.8 °F 69% 30.32 in 10.0 mi Calm Calm - N/A   Overcast
7:54 AM 23.0 °F - 15.8 °F 74% 30.33 in 10.0 mi Calm Calm - N/A   Overcast
8:14 AM 23.0 °F 17.0 °F 15.8 °F 74% 30.33 in 10.0 mi SW 4.6 mph - N/A   Mostly Cloudy
8:34 AM 21.2 °F 12.6 °F 15.8 °F 80% 30.34 in 10.0 mi SW 6.9 mph - N/A   Mostly Cloudy
9:15 AM 24.8 °F 16.9 °F 19.4 °F 80% 30.35 in 10.0 mi SW 6.9 mph - N/A   Mostly Cloudy
9:54 AM 26.6 °F 19.1 °F 17.6 °F 69% 30.36 in 10.0 mi SW 6.9 mph - N/A   Overcast
10:15 AM 26.6 °F 18.2 °F 17.6 °F 69% 30.36 in 10.0 mi SW 8.1 mph - N/A   Scattered Clouds
10:34 AM 26.6 °F 18.2 °F 17.6 °F 69% 30.37 in 10.0 mi SSW 8.1 mph - N/A   Clear
10:54 AM 26.6 °F 18.2 °F 17.6 °F 69% 30.37 in 10.0 mi SSW 8.1 mph - N/A   Clear
11:15 AM 26.6 °F 19.1 °F 15.8 °F 64% 30.38 in 10.0 mi SW 6.9 mph - N/A   Clear
11:34 AM 26.6 °F 20.0 °F 15.8 °F 64% 30.38 in 10.0 mi SSW 5.8 mph - N/A   Clear
11:55 AM 28.4 °F 21.2 °F 17.6 °F 64% 30.37 in 10.0 mi SW 6.9 mph - N/A   Clear
12:14 PM 28.4 °F 19.7 °F 15.8 °F 59% 30.37 in 10.0 mi SSW 9.2 mph - N/A   Clear
12:34 PM 28.4 °F 20.4 °F 17.6 °F 64% 30.36 in 10.0 mi SSW 8.1 mph - N/A   Clear
12:55 PM 28.4 °F 20.4 °F 15.8 °F 59% 30.36 in 10.0 mi SSW 8.1 mph - N/A   Clear
1:14 PM 28.4 °F 18.5 °F 15.8 °F 59% 30.35 in 10.0 mi South 11.5 mph 19.6 mph N/A   Clear
1:35 PM 28.4 °F 19.1 °F 15.8 °F 59% 30.35 in 10.0 mi South 10.4 mph - N/A   Clear
1:55 PM 28.4 °F 19.1 °F 17.6 °F 64% 30.35 in 10.0 mi SSW 10.4 mph - N/A   Clear
2:14 PM 28.4 °F 19.7 °F 17.6 °F 64% 30.35 in 10.0 mi South 9.2 mph 16.1 mph N/A   Clear
2:35 PM 30.2 °F 20.2 °F 17.6 °F 60% 30.33 in 10.0 mi SSW 12.7 mph - N/A   Clear
2:54 PM 30.2 °F 20.8 °F 19.4 °F 64% 30.34 in 10.0 mi South 11.5 mph 17.3 mph N/A   Clear
3:14 PM 30.2 °F 19.8 °F 19.4 °F 64% 30.34 in 10.0 mi SSW 13.8 mph - N/A   Clear
3:34 PM 30.2 °F 20.8 °F 19.4 °F 64% 30.34 in 10.0 mi South 11.5 mph 18.4 mph N/A   Clear
3:54 PM 28.4 °F 19.7 °F 19.4 °F 69% 30.34 in 10.0 mi South 9.2 mph - N/A   Clear
4:15 PM 28.4 °F 18.0 °F 19.4 °F 69% 30.34 in 10.0 mi South 12.7 mph 21.9 mph N/A   Clear
4:34 PM 28.4 °F 19.7 °F 19.4 °F 69% 30.33 in 10.0 mi South 9.2 mph - N/A   Clear
4:54 PM 28.4 °F 20.4 °F 19.4 °F 69% 30.33 in 10.0 mi South 8.1 mph - N/A   Clear
5:34 PM 26.6 °F 17.5 °F 19.4 °F 74% 30.33 in 10.0 mi South 9.2 mph - N/A   Clear
5:55 PM 26.6 °F 18.2 °F 19.4 °F 74% 30.33 in 10.0 mi South 8.1 mph - N/A   Clear
6:14 PM 26.6 °F 16.8 °F 19.4 °F 74% 30.33 in 10.0 mi South 10.4 mph - N/A   Clear
6:34 PM 26.6 °F 16.8 °F 19.4 °F 74% 30.33 in 10.0 mi South 10.4 mph - N/A   Clear
6:55 PM 26.6 °F 17.5 °F 19.4 °F 74% 30.32 in 10.0 mi South 9.2 mph - N/A   Clear
7:14 PM 28.4 °F 19.7 °F 21.2 °F 74% 30.32 in 10.0 mi South 9.2 mph - N/A   Clear
7:35 PM 28.4 °F 20.4 °F 21.2 °F 74% 30.32 in 10.0 mi South 8.1 mph - N/A   Clear
7:54 PM 28.4 °F 19.7 °F 23.0 °F 80% 30.31 in 10.0 mi South 9.2 mph - N/A   Clear
8:14 PM 28.4 °F 19.7 °F 24.8 °F 86% 30.31 in 10.0 mi South 9.2 mph - N/A   Scattered Clouds
8:35 PM 30.2 °F 20.8 °F 26.6 °F 86% 30.31 in 10.0 mi South 11.5 mph 18.4 mph N/A   Scattered Clouds
8:54 PM 30.2 °F 20.2 °F 26.6 °F 86% 30.31 in 10.0 mi South 12.7 mph - N/A   Scattered Clouds
9:15 PM 32.0 °F 23.0 °F 26.6 °F 80% 30.30 in 10.0 mi South 11.5 mph 18.4 mph N/A   Scattered Clouds
9:34 PM 33.8 °F 24.8 °F 26.6 °F 75% 30.31 in 10.0 mi South 12.7 mph 17.3 mph N/A   Mostly Cloudy
9:54 PM 33.8 °F 24.8 °F 28.4 °F 81% 30.30 in 10.0 mi South 12.7 mph 16.1 mph N/A   Mostly Cloudy
10:15 PM 33.8 °F 24.3 °F 28.4 °F 81% 30.29 in 10.0 mi South 13.8 mph 18.4 mph N/A   Overcast
10:34 PM 33.8 °F 23.2 °F 28.4 °F 81% 30.29 in 10.0 mi South 17.3 mph 21.9 mph N/A   Overcast
10:54 PM 33.8 °F 25.8 °F 28.4 °F 81% 30.28 in 10.0 mi South 10.4 mph 20.7 mph N/A   Mostly Cloudy
11:14 PM 33.8 °F 24.8 °F 28.4 °F 81% 30.28 in 10.0 mi South 12.7 mph 18.4 mph N/A   Mostly Cloudy
11:34 PM 33.8 °F 24.8 °F 30.2 °F 87% 30.28 in 10.0 mi South 12.7 mph 19.6 mph N/A   Mostly Cloudy
11:55 PM 35.6 °F 25.9 °F 30.2 °F 81% 30.28 in 10.0 mi South 16.1 mph 21.9 mph N/A   Mostly Cloudy